sensor_id;sensor_type;location;lat;lon;timestamp;temperature;humidity
2647;DHT22;1333;50.958;6.770;2023-01-26T00:00:46;1.20;99.90
2647;DHT22;1333;50.958;6.770;2023-01-26T00:03:12;1.20;99.90
2647;DHT22;1333;50.958;6.770;2023-01-26T00:05:38;1.20;99.90
2647;DHT22;1333;50.958;6.770;2023-01-26T00:08:03;1.20;99.90
2647;DHT22;1333;50.958;6.770;2023-01-26T00:10:29;1.30;99.90
2647;DHT22;1333;50.958;6.770;2023-01-26T00:12:54;1.30;99.90
2647;DHT22;1333;50.958;6.770;2023-01-26T00:15:20;1.30;99.90
2647;DHT22;1333;50.958;6.770;2023-01-26T00:17:45;1.30;99.90
2647;DHT22;1333;50.958;6.770;2023-01-26T00:20:11;1.30;99.90
2647;DHT22;1333;50.958;6.770;2023-01-26T00:22:37;1.30;99.90
2647;DHT22;1333;50.958;6.770;2023-01-26T00:25:02;1.30;99.90
2647;DHT22;1333;50.958;6.770;2023-01-26T00:27:28;1.20;99.90
2647;DHT22;1333;50.958;6.770;2023-01-26T00:29:53;1.20;99.90
2647;DHT22;1333;50.958;6.770;2023-01-26T00:32:19;1.20;99.90
2647;DHT22;1333;50.958;6.770;2023-01-26T00:34:44;1.20;99.90
2647;DHT22;1333;50.958;6.770;2023-01-26T00:37:10;1.10;99.90
2647;DHT22;1333;50.958;6.770;2023-01-26T00:39:36;1.20;99.90
2647;DHT22;1333;50.958;6.770;2023-01-26T00:42:01;1.20;99.90
2647;DHT22;1333;50.958;6.770;2023-01-26T00:44:40;1.20;99.90
2647;DHT22;1333;50.958;6.770;2023-01-26T00:47:07;1.20;99.90
2647;DHT22;1333;50.958;6.770;2023-01-26T00:49:33;1.30;99.90
2647;DHT22;1333;50.958;6.770;2023-01-26T00:51:59;1.30;99.90
2647;DHT22;1333;50.958;6.770;2023-01-26T00:54:25;1.30;99.90
2647;DHT22;1333;50.958;6.770;2023-01-26T00:56:51;1.30;99.90
2647;DHT22;1333;50.958;6.770;2023-01-26T00:59:16;1.40;99.90
2647;DHT22;1333;50.958;6.770;2023-01-26T01:01:42;1.40;99.90
2647;DHT22;1333;50.958;6.770;2023-01-26T01:04:07;1.40;99.90
2647;DHT22;1333;50.958;6.770;2023-01-26T01:06:33;1.40;99.90
2647;DHT22;1333;50.958;6.770;2023-01-26T01:08:58;1.30;99.90
2647;DHT22;1333;50.958;6.770;2023-01-26T01:11:24;1.40;99.90
2647;DHT22;1333;50.958;6.770;2023-01-26T01:13:49;1.40;99.90
2647;DHT22;1333;50.958;6.770;2023-01-26T01:16:15;1.40;99.90
2647;DHT22;1333;50.958;6.770;2023-01-26T01:18:41;1.40;99.90
2647;DHT22;1333;50.958;6.770;2023-01-26T01:21:13;1.40;99.90
2647;DHT22;1333;50.958;6.770;2023-01-26T01:23:39;1.40;99.90
2647;DHT22;1333;50.958;6.770;2023-01-26T01:26:06;1.40;99.90
2647;DHT22;1333;50.958;6.770;2023-01-26T01:28:32;1.40;99.90
2647;DHT22;1333;50.958;6.770;2023-01-26T01:30:58;1.40;99.90
2647;DHT22;1333;50.958;6.770;2023-01-26T01:33:23;1.40;99.90
2647;DHT22;1333;50.958;6.770;2023-01-26T01:36:04;1.40;99.90
2647;DHT22;1333;50.958;6.770;2023-01-26T01:38:29;1.40;99.90
2647;DHT22;1333;50.958;6.770;2023-01-26T01:40:56;1.50;99.90
2647;DHT22;1333;50.958;6.770;2023-01-26T01:43:22;1.50;99.90
2647;DHT22;1333;50.958;6.770;2023-01-26T01:45:50;1.50;99.90
2647;DHT22;1333;50.958;6.770;2023-01-26T01:48:47;1.50;99.90
2647;DHT22;1333;50.958;6.770;2023-01-26T01:51:19;1.50;99.90
2647;DHT22;1333;50.958;6.770;2023-01-26T01:53:47;1.50;99.90
2647;DHT22;1333;50.958;6.770;2023-01-26T01:56:18;1.50;99.90
2647;DHT22;1333;50.958;6.770;2023-01-26T01:58:47;1.50;99.90
2647;DHT22;1333;50.958;6.770;2023-01-26T02:01:14;1.30;99.90
2647;DHT22;1333;50.958;6.770;2023-01-26T02:03:40;1.20;99.90
2647;DHT22;1333;50.958;6.770;2023-01-26T02:06:15;1.10;99.90
2647;DHT22;1333;50.958;6.770;2023-01-26T02:08:48;1.00;99.90
2647;DHT22;1333;50.958;6.770;2023-01-26T02:13:53;1.00;99.90
2647;DHT22;1333;50.958;6.770;2023-01-26T02:16:18;0.90;99.90
2647;DHT22;1333;50.958;6.770;2023-01-26T02:18:44;0.70;99.90
2647;DHT22;1333;50.958;6.770;2023-01-26T02:21:14;0.70;99.90
2647;DHT22;1333;50.958;6.770;2023-01-26T02:26:33;0.70;99.90
2647;DHT22;1333;50.958;6.770;2023-01-26T02:28:59;0.50;99.90
2647;DHT22;1333;50.958;6.770;2023-01-26T02:31:26;0.50;99.90
2647;DHT22;1333;50.958;6.770;2023-01-26T02:33:51;0.20;99.90
2647;DHT22;1333;50.958;6.770;2023-01-26T02:36:25;0.10;99.90
2647;DHT22;1333;50.958;6.770;2023-01-26T02:39:28;0.10;99.90
2647;DHT22;1333;50.958;6.770;2023-01-26T02:41:58;0.00;99.90
2647;DHT22;1333;50.958;6.770;2023-01-26T02:44:53;0.00;99.90
2647;DHT22;1333;50.958;6.770;2023-01-26T02:47:18;-0.20;99.90
2647;DHT22;1333;50.958;6.770;2023-01-26T02:49:44;-0.10;99.90
2647;DHT22;1333;50.958;6.770;2023-01-26T02:52:16;-0.10;99.90
2647;DHT22;1333;50.958;6.770;2023-01-26T02:54:42;0.00;99.90
2647;DHT22;1333;50.958;6.770;2023-01-26T02:57:26;-0.10;99.90
2647;DHT22;1333;50.958;6.770;2023-01-26T02:59:52;0.00;99.90
2647;DHT22;1333;50.958;6.770;2023-01-26T03:02:18;0.00;99.90
2647;DHT22;1333;50.958;6.770;2023-01-26T03:04:43;0.10;99.90
2647;DHT22;1333;50.958;6.770;2023-01-26T03:07:09;0.20;99.90
2647;DHT22;1333;50.958;6.770;2023-01-26T03:09:35;0.20;99.90
2647;DHT22;1333;50.958;6.770;2023-01-26T03:12:02;0.20;99.90
2647;DHT22;1333;50.958;6.770;2023-01-26T03:14:27;0.30;99.90
2647;DHT22;1333;50.958;6.770;2023-01-26T03:16:53;0.20;99.90
2647;DHT22;1333;50.958;6.770;2023-01-26T03:19:20;0.00;99.90
2647;DHT22;1333;50.958;6.770;2023-01-26T03:22:03;0.10;99.90
2647;DHT22;1333;50.958;6.770;2023-01-26T03:24:47;0.10;99.90
2647;DHT22;1333;50.958;6.770;2023-01-26T03:27:42;0.20;99.90
2647;DHT22;1333;50.958;6.770;2023-01-26T03:30:08;0.20;99.90
2647;DHT22;1333;50.958;6.770;2023-01-26T03:32:34;0.30;99.90
2647;DHT22;1333;50.958;6.770;2023-01-26T03:35:00;0.30;99.90
2647;DHT22;1333;50.958;6.770;2023-01-26T03:37:25;0.40;99.90
2647;DHT22;1333;50.958;6.770;2023-01-26T03:39:51;0.40;99.90
2647;DHT22;1333;50.958;6.770;2023-01-26T03:42:36;0.40;99.90
2647;DHT22;1333;50.958;6.770;2023-01-26T03:45:20;0.30;99.90
2647;DHT22;1333;50.958;6.770;2023-01-26T03:48:10;0.30;99.90
2647;DHT22;1333;50.958;6.770;2023-01-26T03:50:54;0.20;99.90
2647;DHT22;1333;50.958;6.770;2023-01-26T03:53:38;0.20;99.90
2647;DHT22;1333;50.958;6.770;2023-01-26T03:56:22;0.10;99.90
2647;DHT22;1333;50.958;6.770;2023-01-26T03:58:56;0.20;99.90
2647;DHT22;1333;50.958;6.770;2023-01-26T04:01:24;0.30;99.90
2647;DHT22;1333;50.958;6.770;2023-01-26T04:03:54;0.20;99.90
2647;DHT22;1333;50.958;6.770;2023-01-26T04:06:42;0.00;99.90
2647;DHT22;1333;50.958;6.770;2023-01-26T04:09:26;0.00;99.90
2647;DHT22;1333;50.958;6.770;2023-01-26T04:11:51;0.00;99.90
2647;DHT22;1333;50.958;6.770;2023-01-26T04:14:17;0.00;99.90
2647;DHT22;1333;50.958;6.770;2023-01-26T04:17:02;0.00;99.90
2647;DHT22;1333;50.958;6.770;2023-01-26T04:19:47;-0.10;99.90
2647;DHT22;1333;50.958;6.770;2023-01-26T04:22:35;-0.10;99.90
2647;DHT22;1333;50.958;6.770;2023-01-26T04:25:06;-0.10;99.90
2647;DHT22;1333;50.958;6.770;2023-01-26T04:27:35;-0.10;99.90
2647;DHT22;1333;50.958;6.770;2023-01-26T04:30:02;0.10;99.90
2647;DHT22;1333;50.958;6.770;2023-01-26T04:32:28;0.20;99.90
2647;DHT22;1333;50.958;6.770;2023-01-26T04:34:54;0.20;99.90
2647;DHT22;1333;50.958;6.770;2023-01-26T04:37:20;0.30;99.90
2647;DHT22;1333;50.958;6.770;2023-01-26T04:39:45;0.20;99.90
2647;DHT22;1333;50.958;6.770;2023-01-26T04:42:11;0.20;99.90
2647;DHT22;1333;50.958;6.770;2023-01-26T04:44:37;0.20;99.90
2647;DHT22;1333;50.958;6.770;2023-01-26T04:47:02;0.20;99.90
2647;DHT22;1333;50.958;6.770;2023-01-26T04:49:28;0.40;99.90
2647;DHT22;1333;50.958;6.770;2023-01-26T04:51:53;0.40;99.90
2647;DHT22;1333;50.958;6.770;2023-01-26T04:54:19;0.50;99.90
2647;DHT22;1333;50.958;6.770;2023-01-26T04:56:44;0.60;99.90
2647;DHT22;1333;50.958;6.770;2023-01-26T04:59:10;0.70;99.90
2647;DHT22;1333;50.958;6.770;2023-01-26T05:01:36;0.80;99.90
2647;DHT22;1333;50.958;6.770;2023-01-26T05:04:03;0.90;99.90
2647;DHT22;1333;50.958;6.770;2023-01-26T05:06:29;1.00;99.90
2647;DHT22;1333;50.958;6.770;2023-01-26T05:08:55;1.00;99.90
2647;DHT22;1333;50.958;6.770;2023-01-26T05:11:20;1.10;99.90
2647;DHT22;1333;50.958;6.770;2023-01-26T05:13:46;1.10;99.90
2647;DHT22;1333;50.958;6.770;2023-01-26T05:16:12;1.20;99.90
2647;DHT22;1333;50.958;6.770;2023-01-26T05:18:39;1.20;99.90
2647;DHT22;1333;50.958;6.770;2023-01-26T05:21:05;1.20;99.90
2647;DHT22;1333;50.958;6.770;2023-01-26T05:23:31;1.30;99.90
2647;DHT22;1333;50.958;6.770;2023-01-26T05:25:56;1.40;99.90
2647;DHT22;1333;50.958;6.770;2023-01-26T05:28:22;1.40;99.90
2647;DHT22;1333;50.958;6.770;2023-01-26T05:30:47;1.40;99.90
2647;DHT22;1333;50.958;6.770;2023-01-26T05:33:13;1.50;99.90
2647;DHT22;1333;50.958;6.770;2023-01-26T05:35:39;1.50;99.90
2647;DHT22;1333;50.958;6.770;2023-01-26T05:38:04;1.60;99.90
2647;DHT22;1333;50.958;6.770;2023-01-26T05:40:30;1.60;99.90
2647;DHT22;1333;50.958;6.770;2023-01-26T05:42:56;1.60;99.90
2647;DHT22;1333;50.958;6.770;2023-01-26T05:45:22;1.30;99.90
2647;DHT22;1333;50.958;6.770;2023-01-26T05:47:48;1.30;99.90
2647;DHT22;1333;50.958;6.770;2023-01-26T05:50:14;1.10;99.90
2647;DHT22;1333;50.958;6.770;2023-01-26T05:52:44;1.10;99.90
2647;DHT22;1333;50.958;6.770;2023-01-26T05:55:14;1.10;99.90
2647;DHT22;1333;50.958;6.770;2023-01-26T05:57:40;1.20;99.90
2647;DHT22;1333;50.958;6.770;2023-01-26T06:00:07;1.20;99.90
2647;DHT22;1333;50.958;6.770;2023-01-26T06:02:33;1.30;99.90
2647;DHT22;1333;50.958;6.770;2023-01-26T06:04:58;1.30;99.90
2647;DHT22;1333;50.958;6.770;2023-01-26T06:07:24;1.30;99.90
2647;DHT22;1333;50.958;6.770;2023-01-26T06:09:51;1.30;99.90
2647;DHT22;1333;50.958;6.770;2023-01-26T06:12:18;1.30;99.90
2647;DHT22;1333;50.958;6.770;2023-01-26T06:14:44;1.40;99.90
2647;DHT22;1333;50.958;6.770;2023-01-26T06:17:10;1.50;99.90
2647;DHT22;1333;50.958;6.770;2023-01-26T06:19:36;1.50;99.90
2647;DHT22;1333;50.958;6.770;2023-01-26T06:22:03;1.50;99.90
2647;DHT22;1333;50.958;6.770;2023-01-26T06:24:29;1.50;99.90
2647;DHT22;1333;50.958;6.770;2023-01-26T06:26:54;1.50;99.90
2647;DHT22;1333;50.958;6.770;2023-01-26T06:29:20;1.60;99.90
2647;DHT22;1333;50.958;6.770;2023-01-26T06:31:45;1.60;99.90
2647;DHT22;1333;50.958;6.770;2023-01-26T06:34:11;1.60;99.90
2647;DHT22;1333;50.958;6.770;2023-01-26T06:36:36;1.60;99.90
2647;DHT22;1333;50.958;6.770;2023-01-26T06:39:02;1.60;99.90
2647;DHT22;1333;50.958;6.770;2023-01-26T06:41:28;1.60;99.90
2647;DHT22;1333;50.958;6.770;2023-01-26T06:43:53;1.60;99.90
2647;DHT22;1333;50.958;6.770;2023-01-26T06:46:19;1.70;99.90
2647;DHT22;1333;50.958;6.770;2023-01-26T06:48:45;1.70;99.90
2647;DHT22;1333;50.958;6.770;2023-01-26T06:53:48;1.70;99.90
2647;DHT22;1333;50.958;6.770;2023-01-26T06:56:15;1.70;99.90
2647;DHT22;1333;50.958;6.770;2023-01-26T06:58:41;1.70;99.90
2647;DHT22;1333;50.958;6.770;2023-01-26T07:01:29;1.80;99.90
2647;DHT22;1333;50.958;6.770;2023-01-26T07:03:54;1.80;99.90
2647;DHT22;1333;50.958;6.770;2023-01-26T07:06:20;1.80;99.90
2647;DHT22;1333;50.958;6.770;2023-01-26T07:08:46;1.80;99.90
2647;DHT22;1333;50.958;6.770;2023-01-26T07:11:12;1.80;99.90
2647;DHT22;1333;50.958;6.770;2023-01-26T07:13:38;1.80;99.90
2647;DHT22;1333;50.958;6.770;2023-01-26T07:16:06;1.80;99.90
2647;DHT22;1333;50.958;6.770;2023-01-26T07:18:32;1.90;99.90
2647;DHT22;1333;50.958;6.770;2023-01-26T07:21:02;1.90;99.90
2647;DHT22;1333;50.958;6.770;2023-01-26T07:23:28;1.90;99.90
2647;DHT22;1333;50.958;6.770;2023-01-26T07:25:54;2.00;99.90
2647;DHT22;1333;50.958;6.770;2023-01-26T07:28:20;1.90;99.90
2647;DHT22;1333;50.958;6.770;2023-01-26T07:30:45;1.80;99.90
2647;DHT22;1333;50.958;6.770;2023-01-26T07:33:11;1.70;99.90
2647;DHT22;1333;50.958;6.770;2023-01-26T07:35:36;1.80;99.90
2647;DHT22;1333;50.958;6.770;2023-01-26T07:38:05;1.70;99.90
2647;DHT22;1333;50.958;6.770;2023-01-26T07:40:31;1.80;99.90
2647;DHT22;1333;50.958;6.770;2023-01-26T07:42:57;1.80;99.90
2647;DHT22;1333;50.958;6.770;2023-01-26T07:45:24;1.90;99.90
2647;DHT22;1333;50.958;6.770;2023-01-26T07:47:49;1.90;99.90
2647;DHT22;1333;50.958;6.770;2023-01-26T07:50:15;1.90;99.90
2647;DHT22;1333;50.958;6.770;2023-01-26T07:52:40;2.00;99.90
2647;DHT22;1333;50.958;6.770;2023-01-26T07:55:08;2.00;99.90
2647;DHT22;1333;50.958;6.770;2023-01-26T07:57:33;2.10;99.90
2647;DHT22;1333;50.958;6.770;2023-01-26T07:59:59;2.10;99.90
2647;DHT22;1333;50.958;6.770;2023-01-26T08:02:24;2.10;99.90
2647;DHT22;1333;50.958;6.770;2023-01-26T08:04:50;2.10;99.90
2647;DHT22;1333;50.958;6.770;2023-01-26T08:07:15;2.20;99.90
2647;DHT22;1333;50.958;6.770;2023-01-26T08:09:41;2.00;99.90
2647;DHT22;1333;50.958;6.770;2023-01-26T08:12:06;2.10;99.90
2647;DHT22;1333;50.958;6.770;2023-01-26T08:14:32;2.20;99.90
2647;DHT22;1333;50.958;6.770;2023-01-26T08:16:58;2.20;99.90
2647;DHT22;1333;50.958;6.770;2023-01-26T08:19:23;2.30;99.90
2647;DHT22;1333;50.958;6.770;2023-01-26T08:21:49;2.40;99.90
2647;DHT22;1333;50.958;6.770;2023-01-26T08:24:14;2.40;99.90
2647;DHT22;1333;50.958;6.770;2023-01-26T08:26:40;2.40;99.90
2647;DHT22;1333;50.958;6.770;2023-01-26T08:29:06;2.40;99.90
2647;DHT22;1333;50.958;6.770;2023-01-26T08:31:31;2.50;99.90
2647;DHT22;1333;50.958;6.770;2023-01-26T08:33:58;2.60;99.90
2647;DHT22;1333;50.958;6.770;2023-01-26T08:36:24;2.60;99.90
2647;DHT22;1333;50.958;6.770;2023-01-26T08:38:50;2.70;99.90
2647;DHT22;1333;50.958;6.770;2023-01-26T08:41:17;2.80;99.90
2647;DHT22;1333;50.958;6.770;2023-01-26T08:43:42;2.90;99.90
2647;DHT22;1333;50.958;6.770;2023-01-26T08:46:08;2.90;99.90
2647;DHT22;1333;50.958;6.770;2023-01-26T08:48:34;3.00;99.90
2647;DHT22;1333;50.958;6.770;2023-01-26T08:51:02;3.00;99.90
2647;DHT22;1333;50.958;6.770;2023-01-26T08:53:34;3.10;99.90
2647;DHT22;1333;50.958;6.770;2023-01-26T08:56:01;3.20;99.90
2647;DHT22;1333;50.958;6.770;2023-01-26T08:58:26;3.20;99.90
2647;DHT22;1333;50.958;6.770;2023-01-26T09:00:53;3.30;99.90
2647;DHT22;1333;50.958;6.770;2023-01-26T09:03:18;3.30;99.90
2647;DHT22;1333;50.958;6.770;2023-01-26T09:05:44;3.40;99.90
2647;DHT22;1333;50.958;6.770;2023-01-26T09:08:09;3.50;99.90
2647;DHT22;1333;50.958;6.770;2023-01-26T09:10:38;3.50;99.90
2647;DHT22;1333;50.958;6.770;2023-01-26T09:13:04;3.60;99.90
2647;DHT22;1333;50.958;6.770;2023-01-26T09:15:30;3.70;99.90
2647;DHT22;1333;50.958;6.770;2023-01-26T09:17:56;3.70;99.90
2647;DHT22;1333;50.958;6.770;2023-01-26T09:20:21;3.80;99.90
2647;DHT22;1333;50.958;6.770;2023-01-26T09:22:47;3.90;99.90
2647;DHT22;1333;50.958;6.770;2023-01-26T09:25:12;3.90;99.90
2647;DHT22;1333;50.958;6.770;2023-01-26T09:27:38;3.90;99.90
2647;DHT22;1333;50.958;6.770;2023-01-26T09:30:05;3.90;99.90
2647;DHT22;1333;50.958;6.770;2023-01-26T09:32:31;3.90;99.90
2647;DHT22;1333;50.958;6.770;2023-01-26T09:34:57;3.90;99.90
2647;DHT22;1333;50.958;6.770;2023-01-26T09:37:23;3.90;99.90
2647;DHT22;1333;50.958;6.770;2023-01-26T09:39:48;3.90;99.90
2647;DHT22;1333;50.958;6.770;2023-01-26T09:45:16;4.00;99.90
2647;DHT22;1333;50.958;6.770;2023-01-26T09:48:07;4.00;99.90
2647;DHT22;1333;50.958;6.770;2023-01-26T09:50:41;4.00;99.90
2647;DHT22;1333;50.958;6.770;2023-01-26T09:55:39;4.00;99.90
2647;DHT22;1333;50.958;6.770;2023-01-26T09:58:12;3.90;99.90
2647;DHT22;1333;50.958;6.770;2023-01-26T10:00:51;3.90;99.90
2647;DHT22;1333;50.958;6.770;2023-01-26T10:03:32;3.90;99.90
2647;DHT22;1333;50.958;6.770;2023-01-26T10:06:22;3.90;99.90
2647;DHT22;1333;50.958;6.770;2023-01-26T10:08:51;3.90;99.90
2647;DHT22;1333;50.958;6.770;2023-01-26T10:11:42;3.90;99.90
2647;DHT22;1333;50.958;6.770;2023-01-26T10:16:48;3.90;99.90
2647;DHT22;1333;50.958;6.770;2023-01-26T10:19:39;3.90;99.90
2647;DHT22;1333;50.958;6.770;2023-01-26T10:22:15;4.00;99.90
2647;DHT22;1333;50.958;6.770;2023-01-26T10:24:46;4.00;99.90
2647;DHT22;1333;50.958;6.770;2023-01-26T10:27:12;4.00;99.90
2647;DHT22;1333;50.958;6.770;2023-01-26T10:29:40;4.00;99.90
2647;DHT22;1333;50.958;6.770;2023-01-26T10:32:12;4.00;99.90
2647;DHT22;1333;50.958;6.770;2023-01-26T10:34:39;4.10;99.90
2647;DHT22;1333;50.958;6.770;2023-01-26T10:37:28;4.10;99.90
2647;DHT22;1333;50.958;6.770;2023-01-26T10:40:03;4.10;99.90
2647;DHT22;1333;50.958;6.770;2023-01-26T10:42:31;4.10;99.90
2647;DHT22;1333;50.958;6.770;2023-01-26T10:44:58;4.10;99.90
2647;DHT22;1333;50.958;6.770;2023-01-26T10:47:27;4.20;99.90
2647;DHT22;1333;50.958;6.770;2023-01-26T10:50:22;4.20;99.90
2647;DHT22;1333;50.958;6.770;2023-01-26T10:53:01;4.30;99.90
2647;DHT22;1333;50.958;6.770;2023-01-26T10:55:28;4.30;99.90
2647;DHT22;1333;50.958;6.770;2023-01-26T10:57:55;4.30;99.90
2647;DHT22;1333;50.958;6.770;2023-01-26T11:02:52;4.40;99.90
2647;DHT22;1333;50.958;6.770;2023-01-26T11:07:47;4.40;99.90
2647;DHT22;1333;50.958;6.770;2023-01-26T11:12:41;4.50;99.90
2647;DHT22;1333;50.958;6.770;2023-01-26T11:15:18;4.60;99.90
2647;DHT22;1333;50.958;6.770;2023-01-26T11:17:56;4.70;99.90
2647;DHT22;1333;50.958;6.770;2023-01-26T11:20:39;4.70;99.90
2647;DHT22;1333;50.958;6.770;2023-01-26T11:25:53;4.70;99.90
2647;DHT22;1333;50.958;6.770;2023-01-26T11:28:47;4.60;99.90
2647;DHT22;1333;50.958;6.770;2023-01-26T11:33:54;4.60;99.90
2647;DHT22;1333;50.958;6.770;2023-01-26T11:47:55;4.40;99.90
2647;DHT22;1333;50.958;6.770;2023-01-26T11:50:37;4.40;99.90
2647;DHT22;1333;50.958;6.770;2023-01-26T11:56:03;4.40;99.90
2647;DHT22;1333;50.958;6.770;2023-01-26T11:58:47;4.30;99.90
2647;DHT22;1333;50.958;6.770;2023-01-26T12:01:19;4.30;99.90
2647;DHT22;1333;50.958;6.770;2023-01-26T12:03:48;4.30;99.90
2647;DHT22;1333;50.958;6.770;2023-01-26T12:06:33;4.30;99.90
2647;DHT22;1333;50.958;6.770;2023-01-26T12:09:25;4.30;99.90
2647;DHT22;1333;50.958;6.770;2023-01-26T12:12:09;4.30;99.90
2647;DHT22;1333;50.958;6.770;2023-01-26T12:14:44;4.30;99.90
2647;DHT22;1333;50.958;6.770;2023-01-26T12:17:29;4.20;99.90
2647;DHT22;1333;50.958;6.770;2023-01-26T12:23:15;4.30;99.90
2647;DHT22;1333;50.958;6.770;2023-01-26T12:25:54;4.20;99.90
2647;DHT22;1333;50.958;6.770;2023-01-26T12:28:31;4.20;99.90
2647;DHT22;1333;50.958;6.770;2023-01-26T12:31:28;4.30;99.90
2647;DHT22;1333;50.958;6.770;2023-01-26T12:33:57;4.30;99.90
2647;DHT22;1333;50.958;6.770;2023-01-26T12:39:25;4.40;99.90
2647;DHT22;1333;50.958;6.770;2023-01-26T12:44:59;4.50;99.90
2647;DHT22;1333;50.958;6.770;2023-01-26T12:52:59;4.60;99.90
2647;DHT22;1333;50.958;6.770;2023-01-26T12:55:51;4.70;99.90
2647;DHT22;1333;50.958;6.770;2023-01-26T12:58:38;4.70;99.90
2647;DHT22;1333;50.958;6.770;2023-01-26T13:01:12;4.70;99.90
2647;DHT22;1333;50.958;6.770;2023-01-26T13:03:42;4.70;99.90
2647;DHT22;1333;50.958;6.770;2023-01-26T13:11:04;4.80;99.90
2647;DHT22;1333;50.958;6.770;2023-01-26T13:18:52;4.70;99.90
2647;DHT22;1333;50.958;6.770;2023-01-26T13:26:56;4.60;99.90
2647;DHT22;1333;50.958;6.770;2023-01-26T13:32:01;4.50;99.90
2647;DHT22;1333;50.958;6.770;2023-01-26T13:34:54;4.40;99.90
2647;DHT22;1333;50.958;6.770;2023-01-26T13:37:31;4.30;99.90
2647;DHT22;1333;50.958;6.770;2023-01-26T13:40:18;4.30;99.90
2647;DHT22;1333;50.958;6.770;2023-01-26T13:45:39;4.20;99.90
2647;DHT22;1333;50.958;6.770;2023-01-26T13:48:17;4.20;99.90
2647;DHT22;1333;50.958;6.770;2023-01-26T13:50:46;4.10;99.90
2647;DHT22;1333;50.958;6.770;2023-01-26T13:53:33;4.10;99.90
2647;DHT22;1333;50.958;6.770;2023-01-26T13:56:00;4.10;99.90
2647;DHT22;1333;50.958;6.770;2023-01-26T13:58:26;4.20;99.90
2647;DHT22;1333;50.958;6.770;2023-01-26T14:01:03;4.20;99.90
2647;DHT22;1333;50.958;6.770;2023-01-26T14:03:29;4.20;99.90
2647;DHT22;1333;50.958;6.770;2023-01-26T14:06:04;4.20;99.90
2647;DHT22;1333;50.958;6.770;2023-01-26T14:08:33;4.30;99.90
2647;DHT22;1333;50.958;6.770;2023-01-26T14:11:02;4.40;99.90
2647;DHT22;1333;50.958;6.770;2023-01-26T14:13:34;4.40;99.90
2647;DHT22;1333;50.958;6.770;2023-01-26T14:16:02;4.40;99.90
2647;DHT22;1333;50.958;6.770;2023-01-26T14:18:29;4.40;99.90
2647;DHT22;1333;50.958;6.770;2023-01-26T14:21:12;4.40;99.90
2647;DHT22;1333;50.958;6.770;2023-01-26T14:23:38;4.40;99.90
2647;DHT22;1333;50.958;6.770;2023-01-26T14:26:27;4.50;99.90
2647;DHT22;1333;50.958;6.770;2023-01-26T14:28:53;4.50;99.90
2647;DHT22;1333;50.958;6.770;2023-01-26T14:31:22;4.50;99.90
2647;DHT22;1333;50.958;6.770;2023-01-26T14:33:49;4.50;99.90
2647;DHT22;1333;50.958;6.770;2023-01-26T14:36:19;4.50;99.90
2647;DHT22;1333;50.958;6.770;2023-01-26T14:38:49;4.40;99.90
2647;DHT22;1333;50.958;6.770;2023-01-26T14:41:23;4.40;99.90
2647;DHT22;1333;50.958;6.770;2023-01-26T14:43:53;4.40;99.90
2647;DHT22;1333;50.958;6.770;2023-01-26T14:46:36;4.40;99.90
2647;DHT22;1333;50.958;6.770;2023-01-26T14:52:37;4.50;99.90
2647;DHT22;1333;50.958;6.770;2023-01-26T14:57:33;4.40;99.90
2647;DHT22;1333;50.958;6.770;2023-01-26T15:00:00;4.50;99.90
2647;DHT22;1333;50.958;6.770;2023-01-26T15:02:35;4.50;99.90
2647;DHT22;1333;50.958;6.770;2023-01-26T15:05:21;4.50;99.90
2647;DHT22;1333;50.958;6.770;2023-01-26T15:08:01;4.50;99.90
2647;DHT22;1333;50.958;6.770;2023-01-26T15:13:20;4.40;99.90
2647;DHT22;1333;50.958;6.770;2023-01-26T15:16:04;4.50;99.90
2647;DHT22;1333;50.958;6.770;2023-01-26T15:18:32;4.40;99.90
2647;DHT22;1333;50.958;6.770;2023-01-26T15:23:34;4.50;99.90
2647;DHT22;1333;50.958;6.770;2023-01-26T15:28:30;4.50;99.90
2647;DHT22;1333;50.958;6.770;2023-01-26T15:30:56;4.40;99.90
2647;DHT22;1333;50.958;6.770;2023-01-26T15:33:50;4.50;99.90
2647;DHT22;1333;50.958;6.770;2023-01-26T15:36:27;4.40;99.90
2647;DHT22;1333;50.958;6.770;2023-01-26T15:41:24;4.30;99.90
2647;DHT22;1333;50.958;6.770;2023-01-26T15:43:49;4.30;99.90
2647;DHT22;1333;50.958;6.770;2023-01-26T15:46:15;4.30;99.90
2647;DHT22;1333;50.958;6.770;2023-01-26T15:48:41;4.30;99.90
2647;DHT22;1333;50.958;6.770;2023-01-26T15:51:13;4.30;99.90
2647;DHT22;1333;50.958;6.770;2023-01-26T15:53:39;4.30;99.90
2647;DHT22;1333;50.958;6.770;2023-01-26T15:56:05;4.30;99.90
2647;DHT22;1333;50.958;6.770;2023-01-26T15:58:31;4.30;99.90
2647;DHT22;1333;50.958;6.770;2023-01-26T16:00:59;4.30;99.90
2647;DHT22;1333;50.958;6.770;2023-01-26T16:03:25;4.30;99.90
2647;DHT22;1333;50.958;6.770;2023-01-26T16:05:52;4.30;99.90
2647;DHT22;1333;50.958;6.770;2023-01-26T16:08:18;4.30;99.90
2647;DHT22;1333;50.958;6.770;2023-01-26T16:10:44;4.30;99.90
2647;DHT22;1333;50.958;6.770;2023-01-26T16:13:12;4.30;99.90
2647;DHT22;1333;50.958;6.770;2023-01-26T16:15:44;4.20;99.90
2647;DHT22;1333;50.958;6.770;2023-01-26T16:18:10;4.30;99.90
2647;DHT22;1333;50.958;6.770;2023-01-26T16:20:38;4.30;99.90
2647;DHT22;1333;50.958;6.770;2023-01-26T16:23:22;4.30;99.90
2647;DHT22;1333;50.958;6.770;2023-01-26T16:25:49;4.30;99.90
2647;DHT22;1333;50.958;6.770;2023-01-26T16:28:15;4.30;99.90
2647;DHT22;1333;50.958;6.770;2023-01-26T16:30:42;4.30;99.90
2647;DHT22;1333;50.958;6.770;2023-01-26T16:33:11;4.30;99.90
2647;DHT22;1333;50.958;6.770;2023-01-26T16:35:37;4.30;99.90
2647;DHT22;1333;50.958;6.770;2023-01-26T16:38:02;4.40;99.90
2647;DHT22;1333;50.958;6.770;2023-01-26T16:40:29;4.50;99.90
2647;DHT22;1333;50.958;6.770;2023-01-26T16:42:55;4.50;99.90
2647;DHT22;1333;50.958;6.770;2023-01-26T16:45:23;4.50;99.90
2647;DHT22;1333;50.958;6.770;2023-01-26T16:47:53;4.60;99.90
2647;DHT22;1333;50.958;6.770;2023-01-26T16:50:23;4.60;99.90
2647;DHT22;1333;50.958;6.770;2023-01-26T16:52:49;4.60;99.90
2647;DHT22;1333;50.958;6.770;2023-01-26T16:55:15;4.70;99.90
2647;DHT22;1333;50.958;6.770;2023-01-26T16:57:43;4.70;99.90
2647;DHT22;1333;50.958;6.770;2023-01-26T17:00:14;4.70;99.90
2647;DHT22;1333;50.958;6.770;2023-01-26T17:02:45;4.70;99.90
2647;DHT22;1333;50.958;6.770;2023-01-26T17:05:16;4.70;99.90
2647;DHT22;1333;50.958;6.770;2023-01-26T17:07:42;4.70;99.90
2647;DHT22;1333;50.958;6.770;2023-01-26T17:10:08;4.80;99.90
2647;DHT22;1333;50.958;6.770;2023-01-26T17:12:34;4.80;99.90
2647;DHT22;1333;50.958;6.770;2023-01-26T17:15:01;4.80;99.90
2647;DHT22;1333;50.958;6.770;2023-01-26T17:17:27;4.80;99.90
2647;DHT22;1333;50.958;6.770;2023-01-26T17:19:52;4.80;99.90
2647;DHT22;1333;50.958;6.770;2023-01-26T17:22:18;4.80;99.90
2647;DHT22;1333;50.958;6.770;2023-01-26T17:24:43;4.80;99.90
2647;DHT22;1333;50.958;6.770;2023-01-26T17:27:09;4.90;99.90
2647;DHT22;1333;50.958;6.770;2023-01-26T17:29:35;4.90;99.90
2647;DHT22;1333;50.958;6.770;2023-01-26T17:32:01;4.90;99.90
2647;DHT22;1333;50.958;6.770;2023-01-26T17:34:27;4.90;99.90
2647;DHT22;1333;50.958;6.770;2023-01-26T17:36:52;4.90;99.90
2647;DHT22;1333;50.958;6.770;2023-01-26T17:39:18;4.90;99.90
2647;DHT22;1333;50.958;6.770;2023-01-26T17:41:44;4.90;99.90
2647;DHT22;1333;50.958;6.770;2023-01-26T17:44:10;4.90;99.90
2647;DHT22;1333;50.958;6.770;2023-01-26T17:46:35;5.00;99.90
2647;DHT22;1333;50.958;6.770;2023-01-26T17:49:01;5.00;99.90
2647;DHT22;1333;50.958;6.770;2023-01-26T17:51:26;5.00;99.90
2647;DHT22;1333;50.958;6.770;2023-01-26T17:53:52;5.10;99.90
2647;DHT22;1333;50.958;6.770;2023-01-26T17:56:19;5.10;99.90
2647;DHT22;1333;50.958;6.770;2023-01-26T17:58:50;5.10;99.90
2647;DHT22;1333;50.958;6.770;2023-01-26T18:01:16;5.10;99.90
2647;DHT22;1333;50.958;6.770;2023-01-26T18:03:43;5.10;99.90
2647;DHT22;1333;50.958;6.770;2023-01-26T18:06:09;5.20;99.90
2647;DHT22;1333;50.958;6.770;2023-01-26T18:08:35;5.20;99.90